sensor_id;sensor_type;location;lat;lon;timestamp;temperature;humidity
11540;DHT22;5826;54.756;9.192;2023-04-30T00:00:11;7.10;99.90
11540;DHT22;5826;54.756;9.192;2023-04-30T00:02:37;7.00;99.90
11540;DHT22;5826;54.756;9.192;2023-04-30T00:05:02;6.90;99.90
11540;DHT22;5826;54.756;9.192;2023-04-30T00:07:28;6.90;99.90
11540;DHT22;5826;54.756;9.192;2023-04-30T00:09:54;6.80;99.90
11540;DHT22;5826;54.756;9.192;2023-04-30T00:12:19;6.80;99.90
11540;DHT22;5826;54.756;9.192;2023-04-30T00:14:45;6.70;99.90
11540;DHT22;5826;54.756;9.192;2023-04-30T00:17:11;6.70;99.90
11540;DHT22;5826;54.756;9.192;2023-04-30T00:19:36;6.70;99.90
11540;DHT22;5826;54.756;9.192;2023-04-30T00:22:02;6.70;99.90
11540;DHT22;5826;54.756;9.192;2023-04-30T00:24:28;6.80;99.90
11540;DHT22;5826;54.756;9.192;2023-04-30T00:26:53;6.70;99.90
11540;DHT22;5826;54.756;9.192;2023-04-30T00:29:19;6.70;99.90
11540;DHT22;5826;54.756;9.192;2023-04-30T00:31:44;6.70;99.90
11540;DHT22;5826;54.756;9.192;2023-04-30T00:34:10;6.70;99.90
11540;DHT22;5826;54.756;9.192;2023-04-30T00:36:36;6.70;99.90
11540;DHT22;5826;54.756;9.192;2023-04-30T00:39:02;6.80;99.90
11540;DHT22;5826;54.756;9.192;2023-04-30T00:41:28;6.80;99.90
11540;DHT22;5826;54.756;9.192;2023-04-30T00:43:54;6.90;99.90
11540;DHT22;5826;54.756;9.192;2023-04-30T00:46:20;6.90;99.90
11540;DHT22;5826;54.756;9.192;2023-04-30T00:48:45;6.90;99.90
11540;DHT22;5826;54.756;9.192;2023-04-30T00:51:11;6.90;99.90
11540;DHT22;5826;54.756;9.192;2023-04-30T00:53:39;6.90;99.90
11540;DHT22;5826;54.756;9.192;2023-04-30T00:56:05;6.90;99.90
11540;DHT22;5826;54.756;9.192;2023-04-30T00:58:33;6.90;99.90
11540;DHT22;5826;54.756;9.192;2023-04-30T01:01:00;6.80;99.90
11540;DHT22;5826;54.756;9.192;2023-04-30T01:03:27;6.80;99.90
11540;DHT22;5826;54.756;9.192;2023-04-30T01:05:52;6.80;99.90
11540;DHT22;5826;54.756;9.192;2023-04-30T01:08:18;6.70;99.90
11540;DHT22;5826;54.756;9.192;2023-04-30T01:10:51;6.70;99.90
11540;DHT22;5826;54.756;9.192;2023-04-30T01:13:49;6.60;99.90
11540;DHT22;5826;54.756;9.192;2023-04-30T01:16:22;6.60;99.90
11540;DHT22;5826;54.756;9.192;2023-04-30T01:19:04;6.50;99.90
11540;DHT22;5826;54.756;9.192;2023-04-30T01:21:31;6.40;99.90
11540;DHT22;5826;54.756;9.192;2023-04-30T01:24:05;6.30;99.90
11540;DHT22;5826;54.756;9.192;2023-04-30T01:27:28;6.30;99.90
11540;DHT22;5826;54.756;9.192;2023-04-30T01:29:55;6.30;99.90
11540;DHT22;5826;54.756;9.192;2023-04-30T01:32:21;6.30;99.90
11540;DHT22;5826;54.756;9.192;2023-04-30T01:34:47;6.20;99.90
11540;DHT22;5826;54.756;9.192;2023-04-30T01:37:23;6.20;99.90
11540;DHT22;5826;54.756;9.192;2023-04-30T01:40:18;6.10;99.90
11540;DHT22;5826;54.756;9.192;2023-04-30T01:43:07;6.10;99.90
11540;DHT22;5826;54.756;9.192;2023-04-30T01:45:53;6.00;99.90
11540;DHT22;5826;54.756;9.192;2023-04-30T01:48:39;6.00;99.90
11540;DHT22;5826;54.756;9.192;2023-04-30T01:53:41;6.00;99.90
11540;DHT22;5826;54.756;9.192;2023-04-30T01:56:26;5.90;99.90
11540;DHT22;5826;54.756;9.192;2023-04-30T01:58:52;5.90;99.90
11540;DHT22;5826;54.756;9.192;2023-04-30T02:01:30;5.90;99.90
11540;DHT22;5826;54.756;9.192;2023-04-30T02:03:56;5.90;99.90
11540;DHT22;5826;54.756;9.192;2023-04-30T02:06:23;5.90;99.90
11540;DHT22;5826;54.756;9.192;2023-04-30T02:08:53;5.90;99.90
11540;DHT22;5826;54.756;9.192;2023-04-30T02:11:19;6.00;99.90
11540;DHT22;5826;54.756;9.192;2023-04-30T02:13:45;6.00;99.90
11540;DHT22;5826;54.756;9.192;2023-04-30T02:16:11;6.00;99.90
11540;DHT22;5826;54.756;9.192;2023-04-30T02:18:36;6.00;99.90
11540;DHT22;5826;54.756;9.192;2023-04-30T02:21:02;6.00;99.90
11540;DHT22;5826;54.756;9.192;2023-04-30T02:23:27;6.00;99.90
11540;DHT22;5826;54.756;9.192;2023-04-30T02:25:53;5.90;99.90
11540;DHT22;5826;54.756;9.192;2023-04-30T02:28:18;5.80;99.90
11540;DHT22;5826;54.756;9.192;2023-04-30T02:30:44;5.80;99.90
11540;DHT22;5826;54.756;9.192;2023-04-30T02:33:09;5.80;99.90
11540;DHT22;5826;54.756;9.192;2023-04-30T02:35:36;5.80;99.90
11540;DHT22;5826;54.756;9.192;2023-04-30T02:38:02;5.80;99.90
11540;DHT22;5826;54.756;9.192;2023-04-30T02:40:28;5.80;99.90
11540;DHT22;5826;54.756;9.192;2023-04-30T02:42:53;5.90;99.90
11540;DHT22;5826;54.756;9.192;2023-04-30T02:45:21;6.00;99.90
11540;DHT22;5826;54.756;9.192;2023-04-30T02:47:46;6.00;99.90
11540;DHT22;5826;54.756;9.192;2023-04-30T02:50:12;6.10;99.90
11540;DHT22;5826;54.756;9.192;2023-04-30T02:52:38;6.20;99.90
11540;DHT22;5826;54.756;9.192;2023-04-30T02:55:04;6.20;99.90
11540;DHT22;5826;54.756;9.192;2023-04-30T02:57:29;6.20;99.90
11540;DHT22;5826;54.756;9.192;2023-04-30T02:59:55;6.20;99.90
11540;DHT22;5826;54.756;9.192;2023-04-30T03:02:20;6.20;99.90
11540;DHT22;5826;54.756;9.192;2023-04-30T03:04:48;6.20;99.90
11540;DHT22;5826;54.756;9.192;2023-04-30T03:07:14;6.20;99.90
11540;DHT22;5826;54.756;9.192;2023-04-30T03:09:39;6.30;99.90
11540;DHT22;5826;54.756;9.192;2023-04-30T03:12:05;6.30;99.90
11540;DHT22;5826;54.756;9.192;2023-04-30T03:14:31;6.30;99.90
11540;DHT22;5826;54.756;9.192;2023-04-30T03:16:56;6.30;99.90
11540;DHT22;5826;54.756;9.192;2023-04-30T03:19:21;6.30;99.90
11540;DHT22;5826;54.756;9.192;2023-04-30T03:21:50;6.30;99.90
11540;DHT22;5826;54.756;9.192;2023-04-30T03:24:16;6.30;99.90
11540;DHT22;5826;54.756;9.192;2023-04-30T03:26:42;6.30;99.90
11540;DHT22;5826;54.756;9.192;2023-04-30T03:29:08;6.30;99.90
11540;DHT22;5826;54.756;9.192;2023-04-30T03:31:33;6.30;99.90
11540;DHT22;5826;54.756;9.192;2023-04-30T03:33:59;6.30;99.90
11540;DHT22;5826;54.756;9.192;2023-04-30T03:36:24;6.30;99.90
11540;DHT22;5826;54.756;9.192;2023-04-30T03:38:51;6.30;99.90
11540;DHT22;5826;54.756;9.192;2023-04-30T03:41:17;6.30;99.90
11540;DHT22;5826;54.756;9.192;2023-04-30T03:43:43;6.30;99.90
11540;DHT22;5826;54.756;9.192;2023-04-30T03:46:08;6.30;99.90
11540;DHT22;5826;54.756;9.192;2023-04-30T03:48:34;6.40;99.90
11540;DHT22;5826;54.756;9.192;2023-04-30T03:50:59;6.40;99.90
11540;DHT22;5826;54.756;9.192;2023-04-30T03:53:25;6.40;99.90
11540;DHT22;5826;54.756;9.192;2023-04-30T03:55:51;6.40;99.90
11540;DHT22;5826;54.756;9.192;2023-04-30T03:58:17;6.30;99.90
11540;DHT22;5826;54.756;9.192;2023-04-30T04:00:43;6.30;99.90
11540;DHT22;5826;54.756;9.192;2023-04-30T04:03:10;6.30;99.90
11540;DHT22;5826;54.756;9.192;2023-04-30T04:05:36;6.30;99.90
11540;DHT22;5826;54.756;9.192;2023-04-30T04:08:02;6.40;99.90
11540;DHT22;5826;54.756;9.192;2023-04-30T04:10:27;6.30;99.90
11540;DHT22;5826;54.756;9.192;2023-04-30T04:12:53;6.30;99.90
11540;DHT22;5826;54.756;9.192;2023-04-30T04:15:19;6.40;99.90
11540;DHT22;5826;54.756;9.192;2023-04-30T04:17:44;6.50;99.90
11540;DHT22;5826;54.756;9.192;2023-04-30T04:20:10;6.50;99.90
11540;DHT22;5826;54.756;9.192;2023-04-30T04:22:36;6.50;99.90
11540;DHT22;5826;54.756;9.192;2023-04-30T04:25:01;6.50;99.90
11540;DHT22;5826;54.756;9.192;2023-04-30T04:27:27;6.50;99.90
11540;DHT22;5826;54.756;9.192;2023-04-30T04:29:52;6.60;99.90
11540;DHT22;5826;54.756;9.192;2023-04-30T04:32:18;6.60;99.90
11540;DHT22;5826;54.756;9.192;2023-04-30T04:34:44;6.70;99.90
11540;DHT22;5826;54.756;9.192;2023-04-30T04:37:10;6.70;99.90
11540;DHT22;5826;54.756;9.192;2023-04-30T04:39:35;6.80;99.90
11540;DHT22;5826;54.756;9.192;2023-04-30T04:42:02;6.90;99.90
11540;DHT22;5826;54.756;9.192;2023-04-30T04:44:27;6.90;99.90
11540;DHT22;5826;54.756;9.192;2023-04-30T04:46:53;7.00;99.90
11540;DHT22;5826;54.756;9.192;2023-04-30T04:49:20;7.00;99.90
11540;DHT22;5826;54.756;9.192;2023-04-30T04:51:46;7.00;99.90
11540;DHT22;5826;54.756;9.192;2023-04-30T04:54:11;7.00;99.90
11540;DHT22;5826;54.756;9.192;2023-04-30T04:56:37;7.10;99.90
11540;DHT22;5826;54.756;9.192;2023-04-30T04:59:02;7.10;99.90
11540;DHT22;5826;54.756;9.192;2023-04-30T05:01:28;7.20;99.90
11540;DHT22;5826;54.756;9.192;2023-04-30T05:03:53;7.20;99.90
11540;DHT22;5826;54.756;9.192;2023-04-30T05:06:19;7.20;99.90
11540;DHT22;5826;54.756;9.192;2023-04-30T05:08:45;7.20;99.90
11540;DHT22;5826;54.756;9.192;2023-04-30T05:11:10;7.20;99.90
11540;DHT22;5826;54.756;9.192;2023-04-30T05:13:36;7.20;99.90
11540;DHT22;5826;54.756;9.192;2023-04-30T05:16:02;7.20;99.90
11540;DHT22;5826;54.756;9.192;2023-04-30T05:18:28;7.20;99.90
11540;DHT22;5826;54.756;9.192;2023-04-30T05:20:53;7.20;99.90
11540;DHT22;5826;54.756;9.192;2023-04-30T05:23:19;7.20;99.90
11540;DHT22;5826;54.756;9.192;2023-04-30T05:25:44;7.30;99.90
11540;DHT22;5826;54.756;9.192;2023-04-30T05:28:11;7.30;99.90
11540;DHT22;5826;54.756;9.192;2023-04-30T05:30:36;7.40;99.90
11540;DHT22;5826;54.756;9.192;2023-04-30T05:33:02;7.40;99.90
11540;DHT22;5826;54.756;9.192;2023-04-30T05:35:28;7.50;99.90
11540;DHT22;5826;54.756;9.192;2023-04-30T05:37:54;7.50;99.90
11540;DHT22;5826;54.756;9.192;2023-04-30T05:40:20;7.60;99.90
11540;DHT22;5826;54.756;9.192;2023-04-30T05:42:45;7.60;99.90
11540;DHT22;5826;54.756;9.192;2023-04-30T05:45:12;7.70;99.90
11540;DHT22;5826;54.756;9.192;2023-04-30T05:47:39;7.70;99.90
11540;DHT22;5826;54.756;9.192;2023-04-30T05:50:05;7.80;99.90
11540;DHT22;5826;54.756;9.192;2023-04-30T05:52:31;7.90;99.90
11540;DHT22;5826;54.756;9.192;2023-04-30T05:54:57;7.90;99.90
11540;DHT22;5826;54.756;9.192;2023-04-30T05:57:22;8.10;99.90
11540;DHT22;5826;54.756;9.192;2023-04-30T05:59:48;8.20;99.90
11540;DHT22;5826;54.756;9.192;2023-04-30T06:02:13;8.30;99.90
11540;DHT22;5826;54.756;9.192;2023-04-30T06:04:39;8.40;99.90
11540;DHT22;5826;54.756;9.192;2023-04-30T06:07:05;8.50;99.90
11540;DHT22;5826;54.756;9.192;2023-04-30T06:09:30;8.50;99.90
11540;DHT22;5826;54.756;9.192;2023-04-30T06:11:56;8.60;99.90
11540;DHT22;5826;54.756;9.192;2023-04-30T06:14:22;8.70;99.90
11540;DHT22;5826;54.756;9.192;2023-04-30T06:16:48;8.80;99.90
11540;DHT22;5826;54.756;9.192;2023-04-30T06:19:14;8.90;99.90
11540;DHT22;5826;54.756;9.192;2023-04-30T06:21:40;8.90;99.90
11540;DHT22;5826;54.756;9.192;2023-04-30T06:24:08;9.00;99.90
11540;DHT22;5826;54.756;9.192;2023-04-30T06:26:33;9.00;99.90
11540;DHT22;5826;54.756;9.192;2023-04-30T06:28:59;9.10;99.90
11540;DHT22;5826;54.756;9.192;2023-04-30T06:31:24;9.10;99.90
11540;DHT22;5826;54.756;9.192;2023-04-30T06:33:50;9.10;99.90
11540;DHT22;5826;54.756;9.192;2023-04-30T06:36:16;9.20;99.90
11540;DHT22;5826;54.756;9.192;2023-04-30T06:38:43;9.20;99.90
11540;DHT22;5826;54.756;9.192;2023-04-30T06:41:08;9.20;99.90
11540;DHT22;5826;54.756;9.192;2023-04-30T06:43:34;9.10;99.90
11540;DHT22;5826;54.756;9.192;2023-04-30T06:45:59;9.10;99.90
11540;DHT22;5826;54.756;9.192;2023-04-30T06:48:25;9.10;99.90
11540;DHT22;5826;54.756;9.192;2023-04-30T06:50:51;9.10;99.90
11540;DHT22;5826;54.756;9.192;2023-04-30T06:53:16;9.10;99.90
11540;DHT22;5826;54.756;9.192;2023-04-30T06:55:44;9.10;99.90
11540;DHT22;5826;54.756;9.192;2023-04-30T06:58:10;9.20;99.90
11540;DHT22;5826;54.756;9.192;2023-04-30T07:00:36;9.20;99.90
11540;DHT22;5826;54.756;9.192;2023-04-30T07:03:02;9.30;99.90
11540;DHT22;5826;54.756;9.192;2023-04-30T07:05:31;9.40;99.90
11540;DHT22;5826;54.756;9.192;2023-04-30T07:07:59;9.40;99.90
11540;DHT22;5826;54.756;9.192;2023-04-30T07:10:24;9.50;99.90
11540;DHT22;5826;54.756;9.192;2023-04-30T07:12:50;9.50;99.90
11540;DHT22;5826;54.756;9.192;2023-04-30T07:15:16;9.50;99.90
11540;DHT22;5826;54.756;9.192;2023-04-30T07:17:41;9.50;99.90
11540;DHT22;5826;54.756;9.192;2023-04-30T07:20:07;9.50;99.90
11540;DHT22;5826;54.756;9.192;2023-04-30T07:22:33;9.60;99.90
11540;DHT22;5826;54.756;9.192;2023-04-30T07:24:59;9.60;99.90
11540;DHT22;5826;54.756;9.192;2023-04-30T07:27:25;9.60;99.90
11540;DHT22;5826;54.756;9.192;2023-04-30T07:29:51;9.60;99.90
11540;DHT22;5826;54.756;9.192;2023-04-30T07:32:17;9.60;99.90
11540;DHT22;5826;54.756;9.192;2023-04-30T07:34:42;9.60;99.90
11540;DHT22;5826;54.756;9.192;2023-04-30T07:37:08;9.60;99.90
11540;DHT22;5826;54.756;9.192;2023-04-30T07:39:34;9.60;99.90
11540;DHT22;5826;54.756;9.192;2023-04-30T07:42:03;9.60;99.90
11540;DHT22;5826;54.756;9.192;2023-04-30T07:44:32;9.60;99.90
11540;DHT22;5826;54.756;9.192;2023-04-30T07:46:57;9.70;99.90
11540;DHT22;5826;54.756;9.192;2023-04-30T07:49:24;9.80;99.90
11540;DHT22;5826;54.756;9.192;2023-04-30T07:51:50;9.90;99.90
11540;DHT22;5826;54.756;9.192;2023-04-30T07:54:16;10.00;99.90
11540;DHT22;5826;54.756;9.192;2023-04-30T07:56:41;10.00;99.90
11540;DHT22;5826;54.756;9.192;2023-04-30T07:59:07;10.10;99.90
11540;DHT22;5826;54.756;9.192;2023-04-30T08:01:33;10.20;99.90
11540;DHT22;5826;54.756;9.192;2023-04-30T08:03:58;10.30;99.90
11540;DHT22;5826;54.756;9.192;2023-04-30T08:06:24;10.50;99.90
11540;DHT22;5826;54.756;9.192;2023-04-30T08:08:51;10.40;99.90
11540;DHT22;5826;54.756;9.192;2023-04-30T08:11:17;10.40;99.90
11540;DHT22;5826;54.756;9.192;2023-04-30T08:13:43;10.40;99.90
11540;DHT22;5826;54.756;9.192;2023-04-30T08:16:08;10.50;99.90
11540;DHT22;5826;54.756;9.192;2023-04-30T08:18:34;10.50;99.90
11540;DHT22;5826;54.756;9.192;2023-04-30T08:21:00;10.60;99.90
11540;DHT22;5826;54.756;9.192;2023-04-30T08:23:26;10.70;99.90
11540;DHT22;5826;54.756;9.192;2023-04-30T08:25:52;10.80;99.90
11540;DHT22;5826;54.756;9.192;2023-04-30T08:28:17;11.00;99.90
11540;DHT22;5826;54.756;9.192;2023-04-30T08:30:43;11.20;99.90
11540;DHT22;5826;54.756;9.192;2023-04-30T08:33:09;11.20;99.90
11540;DHT22;5826;54.756;9.192;2023-04-30T08:35:35;11.20;99.90
11540;DHT22;5826;54.756;9.192;2023-04-30T08:38:00;11.10;99.90
11540;DHT22;5826;54.756;9.192;2023-04-30T08:40:26;11.00;99.90
11540;DHT22;5826;54.756;9.192;2023-04-30T08:43:06;10.90;99.90
11540;DHT22;5826;54.756;9.192;2023-04-30T08:45:32;10.90;99.90
11540;DHT22;5826;54.756;9.192;2023-04-30T08:47:58;10.80;99.90
11540;DHT22;5826;54.756;9.192;2023-04-30T08:50:25;10.80;99.90
11540;DHT22;5826;54.756;9.192;2023-04-30T08:52:50;10.70;99.90
11540;DHT22;5826;54.756;9.192;2023-04-30T08:55:16;10.80;99.90
11540;DHT22;5826;54.756;9.192;2023-04-30T08:57:41;10.80;99.90
11540;DHT22;5826;54.756;9.192;2023-04-30T09:00:07;10.80;99.90
11540;DHT22;5826;54.756;9.192;2023-04-30T09:02:34;10.80;99.90
11540;DHT22;5826;54.756;9.192;2023-04-30T09:04:59;10.80;99.90
11540;DHT22;5826;54.756;9.192;2023-04-30T09:07:26;10.90;99.90
11540;DHT22;5826;54.756;9.192;2023-04-30T09:09:53;11.10;99.90
11540;DHT22;5826;54.756;9.192;2023-04-30T09:12:19;11.30;99.90
11540;DHT22;5826;54.756;9.192;2023-04-30T09:17:24;11.50;99.90
11540;DHT22;5826;54.756;9.192;2023-04-30T09:19:51;11.30;99.90
11540;DHT22;5826;54.756;9.192;2023-04-30T09:22:21;11.10;99.90
11540;DHT22;5826;54.756;9.192;2023-04-30T09:24:47;11.00;99.90
11540;DHT22;5826;54.756;9.192;2023-04-30T09:27:18;11.10;99.90
11540;DHT22;5826;54.756;9.192;2023-04-30T09:29:44;11.30;99.90
11540;DHT22;5826;54.756;9.192;2023-04-30T09:32:11;11.40;99.90
11540;DHT22;5826;54.756;9.192;2023-04-30T09:34:36;11.60;99.90
11540;DHT22;5826;54.756;9.192;2023-04-30T09:37:02;11.70;99.90
11540;DHT22;5826;54.756;9.192;2023-04-30T09:39:28;11.70;99.90
11540;DHT22;5826;54.756;9.192;2023-04-30T09:42:06;11.80;99.90
11540;DHT22;5826;54.756;9.192;2023-04-30T09:44:36;12.00;99.90
11540;DHT22;5826;54.756;9.192;2023-04-30T09:47:02;12.00;99.90
11540;DHT22;5826;54.756;9.192;2023-04-30T09:49:28;12.10;99.90
11540;DHT22;5826;54.756;9.192;2023-04-30T09:51:57;12.20;99.90
11540;DHT22;5826;54.756;9.192;2023-04-30T09:54:28;12.20;99.90
11540;DHT22;5826;54.756;9.192;2023-04-30T09:56:55;12.40;99.90
11540;DHT22;5826;54.756;9.192;2023-04-30T09:59:28;12.20;99.90
11540;DHT22;5826;54.756;9.192;2023-04-30T10:02:00;12.30;99.90
11540;DHT22;5826;54.756;9.192;2023-04-30T10:04:40;12.20;99.90
11540;DHT22;5826;54.756;9.192;2023-04-30T10:07:11;12.30;99.90
11540;DHT22;5826;54.756;9.192;2023-04-30T10:09:58;12.40;99.90
11540;DHT22;5826;54.756;9.192;2023-04-30T10:12:38;12.60;99.90
11540;DHT22;5826;54.756;9.192;2023-04-30T10:15:13;12.60;99.90
11540;DHT22;5826;54.756;9.192;2023-04-30T10:17:40;12.60;99.90
11540;DHT22;5826;54.756;9.192;2023-04-30T10:20:09;12.70;99.90
11540;DHT22;5826;54.756;9.192;2023-04-30T10:22:35;12.90;99.90
11540;DHT22;5826;54.756;9.192;2023-04-30T10:25:02;13.00;99.90
11540;DHT22;5826;54.756;9.192;2023-04-30T10:27:28;13.10;99.70
11540;DHT22;5826;54.756;9.192;2023-04-30T10:29:54;12.90;99.90
11540;DHT22;5826;54.756;9.192;2023-04-30T10:32:21;12.80;99.90
11540;DHT22;5826;54.756;9.192;2023-04-30T10:35:11;12.80;99.90
11540;DHT22;5826;54.756;9.192;2023-04-30T10:37:45;12.90;99.90
11540;DHT22;5826;54.756;9.192;2023-04-30T10:40:12;12.90;99.90
11540;DHT22;5826;54.756;9.192;2023-04-30T10:42:44;12.90;99.90
11540;DHT22;5826;54.756;9.192;2023-04-30T10:45:10;12.90;99.90
11540;DHT22;5826;54.756;9.192;2023-04-30T10:47:36;13.00;99.90
11540;DHT22;5826;54.756;9.192;2023-04-30T10:50:09;13.10;99.90
11540;DHT22;5826;54.756;9.192;2023-04-30T10:52:37;13.20;99.90
11540;DHT22;5826;54.756;9.192;2023-04-30T10:55:07;13.20;99.50
11540;DHT22;5826;54.756;9.192;2023-04-30T10:57:42;13.30;99.90
11540;DHT22;5826;54.756;9.192;2023-04-30T11:02:43;13.30;99.90
11540;DHT22;5826;54.756;9.192;2023-04-30T11:05:13;13.50;99.90
11540;DHT22;5826;54.756;9.192;2023-04-30T11:08:05;13.70;99.40
11540;DHT22;5826;54.756;9.192;2023-04-30T11:10:35;13.80;99.40
11540;DHT22;5826;54.756;9.192;2023-04-30T11:13:05;13.90;99.90
11540;DHT22;5826;54.756;9.192;2023-04-30T11:15:44;14.00;99.90
11540;DHT22;5826;54.756;9.192;2023-04-30T11:18:12;14.10;99.90
11540;DHT22;5826;54.756;9.192;2023-04-30T11:20:49;14.10;99.70
11540;DHT22;5826;54.756;9.192;2023-04-30T11:23:22;14.10;98.80
11540;DHT22;5826;54.756;9.192;2023-04-30T11:25:48;14.20;99.00
11540;DHT22;5826;54.756;9.192;2023-04-30T11:28:20;14.30;99.60
11540;DHT22;5826;54.756;9.192;2023-04-30T11:30:59;14.30;99.00
11540;DHT22;5826;54.756;9.192;2023-04-30T11:33:26;14.30;99.70
11540;DHT22;5826;54.756;9.192;2023-04-30T11:35:52;14.40;99.70
11540;DHT22;5826;54.756;9.192;2023-04-30T11:38:20;14.50;98.90
11540;DHT22;5826;54.756;9.192;2023-04-30T11:40:47;14.50;99.10
11540;DHT22;5826;54.756;9.192;2023-04-30T11:46:09;14.60;99.40
11540;DHT22;5826;54.756;9.192;2023-04-30T11:48:39;14.80;98.40
11540;DHT22;5826;54.756;9.192;2023-04-30T11:51:22;14.90;99.00
11540;DHT22;5826;54.756;9.192;2023-04-30T11:53:51;14.90;97.90
11540;DHT22;5826;54.756;9.192;2023-04-30T11:56:22;14.80;98.20
11540;DHT22;5826;54.756;9.192;2023-04-30T11:58:50;14.70;98.80
11540;DHT22;5826;54.756;9.192;2023-04-30T12:01:15;14.60;98.10
11540;DHT22;5826;54.756;9.192;2023-04-30T12:03:48;14.50;98.60
11540;DHT22;5826;54.756;9.192;2023-04-30T12:06:24;14.50;98.70
11540;DHT22;5826;54.756;9.192;2023-04-30T12:08:54;14.50;98.60
11540;DHT22;5826;54.756;9.192;2023-04-30T12:11:21;14.50;98.60
11540;DHT22;5826;54.756;9.192;2023-04-30T12:13:55;14.60;98.30
11540;DHT22;5826;54.756;9.192;2023-04-30T12:16:23;14.70;98.30
11540;DHT22;5826;54.756;9.192;2023-04-30T12:18:49;14.80;98.40
11540;DHT22;5826;54.756;9.192;2023-04-30T12:21:17;14.90;98.30
11540;DHT22;5826;54.756;9.192;2023-04-30T12:23:43;15.00;97.80
11540;DHT22;5826;54.756;9.192;2023-04-30T12:26:09;15.10;98.10
11540;DHT22;5826;54.756;9.192;2023-04-30T12:28:35;15.10;97.80
11540;DHT22;5826;54.756;9.192;2023-04-30T12:31:00;15.20;98.30
11540;DHT22;5826;54.756;9.192;2023-04-30T12:33:30;15.20;97.10
11540;DHT22;5826;54.756;9.192;2023-04-30T12:35:55;15.20;98.20
11540;DHT22;5826;54.756;9.192;2023-04-30T12:38:22;15.30;98.00
11540;DHT22;5826;54.756;9.192;2023-04-30T12:40:48;15.40;97.60
11540;DHT22;5826;54.756;9.192;2023-04-30T12:43:15;15.40;98.30
11540;DHT22;5826;54.756;9.192;2023-04-30T12:45:42;15.50;98.20
11540;DHT22;5826;54.756;9.192;2023-04-30T12:48:08;15.60;98.10
11540;DHT22;5826;54.756;9.192;2023-04-30T12:50:34;15.70;97.60
11540;DHT22;5826;54.756;9.192;2023-04-30T12:53:06;16.00;97.30
11540;DHT22;5826;54.756;9.192;2023-04-30T12:55:34;16.10;97.40
11540;DHT22;5826;54.756;9.192;2023-04-30T12:58:05;16.50;96.80
11540;DHT22;5826;54.756;9.192;2023-04-30T13:00:50;16.70;96.20
11540;DHT22;5826;54.756;9.192;2023-04-30T13:03:17;16.70;95.70
11540;DHT22;5826;54.756;9.192;2023-04-30T13:05:48;16.70;96.50
11540;DHT22;5826;54.756;9.192;2023-04-30T13:08:14;16.90;96.70
11540;DHT22;5826;54.756;9.192;2023-04-30T13:10:40;17.20;96.20
11540;DHT22;5826;54.756;9.192;2023-04-30T13:13:05;17.40;96.30
11540;DHT22;5826;54.756;9.192;2023-04-30T13:15:31;17.60;96.20
11540;DHT22;5826;54.756;9.192;2023-04-30T13:17:57;17.50;96.30
11540;DHT22;5826;54.756;9.192;2023-04-30T13:20:22;17.40;95.90
11540;DHT22;5826;54.756;9.192;2023-04-30T13:22:49;17.30;96.30
11540;DHT22;5826;54.756;9.192;2023-04-30T13:25:15;17.30;96.50
11540;DHT22;5826;54.756;9.192;2023-04-30T13:27:42;17.30;96.90
11540;DHT22;5826;54.756;9.192;2023-04-30T13:30:09;17.50;96.00
11540;DHT22;5826;54.756;9.192;2023-04-30T13:32:34;17.60;96.10
11540;DHT22;5826;54.756;9.192;2023-04-30T13:35:01;17.70;96.00
11540;DHT22;5826;54.756;9.192;2023-04-30T13:37:27;18.00;96.60
11540;DHT22;5826;54.756;9.192;2023-04-30T13:39:52;18.20;96.10
11540;DHT22;5826;54.756;9.192;2023-04-30T13:42:18;18.50;95.70
11540;DHT22;5826;54.756;9.192;2023-04-30T13:44:43;18.80;95.80
11540;DHT22;5826;54.756;9.192;2023-04-30T13:47:14;18.90;96.00
11540;DHT22;5826;54.756;9.192;2023-04-30T13:49:40;19.00;95.30
11540;DHT22;5826;54.756;9.192;2023-04-30T13:52:05;19.00;95.20
11540;DHT22;5826;54.756;9.192;2023-04-30T13:54:31;19.20;95.40
11540;DHT22;5826;54.756;9.192;2023-04-30T13:56:57;19.40;95.20
11540;DHT22;5826;54.756;9.192;2023-04-30T13:59:24;19.50;94.00
11540;DHT22;5826;54.756;9.192;2023-04-30T14:01:49;19.60;94.80
11540;DHT22;5826;54.756;9.192;2023-04-30T14:04:15;19.80;93.70
11540;DHT22;5826;54.756;9.192;2023-04-30T14:06:40;19.70;94.20
11540;DHT22;5826;54.756;9.192;2023-04-30T14:09:06;19.80;94.30
11540;DHT22;5826;54.756;9.192;2023-04-30T14:11:32;19.70;94.40
11540;DHT22;5826;54.756;9.192;2023-04-30T14:13:57;19.70;94.80
11540;DHT22;5826;54.756;9.192;2023-04-30T14:16:23;19.60;94.80
11540;DHT22;5826;54.756;9.192;2023-04-30T14:18:49;19.70;94.60
11540;DHT22;5826;54.756;9.192;2023-04-30T14:21:14;19.90;94.40
11540;DHT22;5826;54.756;9.192;2023-04-30T14:23:40;20.10;94.70
11540;DHT22;5826;54.756;9.192;2023-04-30T14:26:06;20.20;94.30
11540;DHT22;5826;54.756;9.192;2023-04-30T14:28:31;20.40;94.50
11540;DHT22;5826;54.756;9.192;2023-04-30T14:30:57;20.50;94.10
11540;DHT22;5826;54.756;9.192;2023-04-30T14:33:23;20.60;93.60
11540;DHT22;5826;54.756;9.192;2023-04-30T14:35:49;20.60;94.40
11540;DHT22;5826;54.756;9.192;2023-04-30T14:38:14;20.20;95.10
11540;DHT22;5826;54.756;9.192;2023-04-30T14:40:41;20.00;96.10
11540;DHT22;5826;54.756;9.192;2023-04-30T14:43:06;19.70;95.30
11540;DHT22;5826;54.756;9.192;2023-04-30T14:45:32;19.60;94.90
11540;DHT22;5826;54.756;9.192;2023-04-30T14:47:58;19.80;95.00
11540;DHT22;5826;54.756;9.192;2023-04-30T14:50:23;20.00;94.90
11540;DHT22;5826;54.756;9.192;2023-04-30T14:52:49;20.30;94.70
11540;DHT22;5826;54.756;9.192;2023-04-30T14:55:15;20.60;94.40
11540;DHT22;5826;54.756;9.192;2023-04-30T14:57:40;20.30;95.10
11540;DHT22;5826;54.756;9.192;2023-04-30T15:00:06;20.30;94.70
11540;DHT22;5826;54.756;9.192;2023-04-30T15:02:32;20.40;94.50
11540;DHT22;5826;54.756;9.192;2023-04-30T15:04:57;20.70;95.40
11540;DHT22;5826;54.756;9.192;2023-04-30T15:07:23;20.70;94.80
11540;DHT22;5826;54.756;9.192;2023-04-30T15:09:48;20.70;94.40
11540;DHT22;5826;54.756;9.192;2023-04-30T15:12:14;20.60;94.50
11540;DHT22;5826;54.756;9.192;2023-04-30T15:14:39;20.30;94.20
11540;DHT22;5826;54.756;9.192;2023-04-30T15:17:05;20.00;94.50
11540;DHT22;5826;54.756;9.192;2023-04-30T15:19:31;19.90;95.40
11540;DHT22;5826;54.756;9.192;2023-04-30T15:21:57;19.80;94.80
11540;DHT22;5826;54.756;9.192;2023-04-30T15:24:22;19.90;95.10
11540;DHT22;5826;54.756;9.192;2023-04-30T15:26:48;20.20;94.90
11540;DHT22;5826;54.756;9.192;2023-04-30T15:29:15;20.20;95.40
11540;DHT22;5826;54.756;9.192;2023-04-30T15:31:41;20.20;95.20
11540;DHT22;5826;54.756;9.192;2023-04-30T15:34:06;20.00;95.50
11540;DHT22;5826;54.756;9.192;2023-04-30T15:36:32;19.90;95.10
11540;DHT22;5826;54.756;9.192;2023-04-30T15:38:57;19.60;95.80
11540;DHT22;5826;54.756;9.192;2023-04-30T15:41:23;19.50;95.20
11540;DHT22;5826;54.756;9.192;2023-04-30T15:43:48;19.50;95.50
11540;DHT22;5826;54.756;9.192;2023-04-30T15:46:15;19.60;94.40
11540;DHT22;5826;54.756;9.192;2023-04-30T15:48:41;19.60;95.20
11540;DHT22;5826;54.756;9.192;2023-04-30T15:51:06;19.50;94.40
11540;DHT22;5826;54.756;9.192;2023-04-30T15:53:32;19.60;94.30
11540;DHT22;5826;54.756;9.192;2023-04-30T15:55:57;19.70;94.10
11540;DHT22;5826;54.756;9.192;2023-04-30T15:58:22;19.60;94.70
11540;DHT22;5826;54.756;9.192;2023-04-30T16:00:48;19.10;95.60
11540;DHT22;5826;54.756;9.192;2023-04-30T16:03:13;19.00;95.00
11540;DHT22;5826;54.756;9.192;2023-04-30T16:05:39;18.80;94.50